Map

Track Data

SID SEASON NUMBER BASIN SUBBASIN NAME ISO_TIME NATURE LAT LON WMO_WIND WMO_PRES WMO_AGENCY TRACK_TYPE DIST2LAND LANDFALL IFLAG USA_AGENCY USA_ATCF_ID USA_LAT USA_LON USA_RECORD USA_STATUS USA_WIND USA_PRES USA_SSHS USA_R34_NE USA_R34_SE USA_R34_SW USA_R34_NW USA_R50_NE USA_R50_SE USA_R50_SW USA_R50_NW USA_R64_NE USA_R64_SE USA_R64_SW USA_R64_NW USA_POCI USA_ROCI USA_RMW USA_EYE TOKYO_LAT TOKYO_LON TOKYO_GRADE TOKYO_WIND TOKYO_PRES TOKYO_R50_DIR TOKYO_R50_LONG TOKYO_R50_SHORT TOKYO_R30_DIR TOKYO_R30_LONG TOKYO_R30_SHORT TOKYO_LAND CMA_LAT CMA_LON CMA_CAT CMA_WIND CMA_PRES HKO_LAT HKO_LON HKO_CAT HKO_WIND HKO_PRES NEWDELHI_LAT NEWDELHI_LON NEWDELHI_GRADE NEWDELHI_WIND NEWDELHI_PRES NEWDELHI_CI NEWDELHI_DP NEWDELHI_POCI REUNION_LAT REUNION_LON REUNION_TYPE REUNION_WIND REUNION_PRES REUNION_TNUM REUNION_CI REUNION_RMW REUNION_R34_NE REUNION_R34_SE REUNION_R34_SW REUNION_R34_NW REUNION_R50_NE REUNION_R50_SE REUNION_R50_SW REUNION_R50_NW REUNION_R64_NE REUNION_R64_SE REUNION_R64_SW REUNION_R64_NW BOM_LAT BOM_LON BOM_TYPE BOM_WIND BOM_PRES BOM_TNUM BOM_CI BOM_RMW BOM_R34_NE BOM_R34_SE BOM_R34_SW BOM_R34_NW BOM_R50_NE BOM_R50_SE BOM_R50_SW BOM_R50_NW BOM_R64_NE BOM_R64_SE BOM_R64_SW BOM_R64_NW BOM_ROCI BOM_POCI BOM_EYE BOM_POS_METHOD BOM_PRES_METHOD NADI_LAT NADI_LON NADI_CAT NADI_WIND NADI_PRES WELLINGTON_LAT WELLINGTON_LON WELLINGTON_WIND WELLINGTON_PRES DS824_LAT DS824_LON DS824_STAGE DS824_WIND DS824_PRES TD9636_LAT TD9636_LON TD9636_STAGE TD9636_WIND TD9636_PRES TD9635_LAT TD9635_LON TD9635_WIND TD9635_PRES TD9635_ROCI NEUMANN_LAT NEUMANN_LON NEUMANN_CLASS NEUMANN_WIND NEUMANN_PRES MLC_LAT MLC_LON MLC_CLASS MLC_WIND MLC_PRES USA_GUST BOM_GUST BOM_GUST_PER REUNION_GUST REUNION_GUST_PER USA_SEAHGT USA_SEARAD_NE USA_SEARAD_SE USA_SEARAD_SW USA_SEARAD_NW STORM_SPEED STORM_DIR
1887226N16116 1887 33 WP MM NOT_NAMED 1887-08-13 16:00:00 NR 15.7000 116.200 main 376 375 __________O___ -1 15.7000 116.200 7 10 326
1887226N16116 1887 33 WP MM NOT_NAMED 1887-08-13 18:00:00 NR 15.9832 116.001 main 395 395 __________P___ -1 15.9832 116.001 7 10 326
1887226N16116 1887 33 WP MM NOT_NAMED 1887-08-13 21:00:00 NR 16.4016 115.709 main 429 429 __________P___ -1 16.4016 115.709 7 10 326
1887226N16116 1887 33 WP MM NOT_NAMED 1887-08-14 00:00:00 NR 16.8041 115.431 main 467 467 __________P___ -1 16.8041 115.431 7 9 327
1887226N16116 1887 33 WP MM NOT_NAMED 1887-08-14 03:00:00 NR 17.1814 115.177 main 498 498 __________P___ -1 17.1814 115.177 7 9 327
1887226N16116 1887 33 WP MM NOT_NAMED 1887-08-14 04:00:00 NR 17.3000 115.100 main 503 482 __________O___ -1 17.3000 115.100 3 8 328
1887226N16116 1887 33 WP MM NOT_NAMED 1887-08-14 06:00:00 NR 17.5252 114.957 main 482 448 __________P___ -1 17.5252 114.957 3 8 329
1887226N16116 1887 33 WP MM NOT_NAMED 1887-08-14 09:00:00 NR 17.8381 114.762 main 448 414 __________P___ -1 17.8381 114.762 3 7 329
1887226N16116 1887 33 WP MM NOT_NAMED 1887-08-14 12:00:00 NR 18.1293 114.573 main 414 381 __________P___ -1 18.1293 114.573 3 7 327
1887226N16116 1887 33 WP MM NOT_NAMED 1887-08-14 15:00:00 NR 18.4082 114.373 main 381 368 __________P___ -1 18.4082 114.373 3 7 325
1887226N16116 1887 33 WP MM NOT_NAMED 1887-08-14 16:00:00 NR 18.5000 114.300 main 368 340 __________O___ -1 18.5000 114.300 4 7 323
1887226N16116 1887 33 WP MM NOT_NAMED 1887-08-14 18:00:00 NR 18.6941 114.147 main 340 311 __________P___ -1 18.6941 114.147 4 7 321
1887226N16116 1887 33 WP MM NOT_NAMED 1887-08-14 21:00:00 NR 18.9792 113.898 main 311 274 __________P___ -1 18.9792 113.898 4 8 319
1887226N16116 1887 33 WP MM NOT_NAMED 1887-08-15 00:00:00 NR 19.2542 113.622 main 274 241 __________P___ -1 19.2542 113.622 4 8 314
1887226N16116 1887 33 WP MM NOT_NAMED 1887-08-15 03:00:00 NR 19.5161 113.312 main 241 230 __________P___ -1 19.5161 113.312 4 8 311
1887226N16116 1887 33 WP MM NOT_NAMED 1887-08-15 04:00:00 NR 19.6000 113.200 main 230 209 __________O___ -1 19.6000 113.200 4 8 306
1887226N16116 1887 33 WP MM NOT_NAMED 1887-08-15 06:00:00 NR 19.7588 112.964 main 210 170 __________P___ -1 19.7588 112.964 4 8 303
1887226N16116 1887 33 WP MM NOT_NAMED 1887-08-15 09:00:00 NR 19.9843 112.579 main 173 139 __________P___ -1 19.9843 112.579 4 9 301
1887226N16116 1887 33 WP MM NOT_NAMED 1887-08-15 12:00:00 NR 20.2029 112.168 main 139 100 __________P___ -1 20.2029 112.168 4 9 299
1887226N16116 1887 33 WP MM NOT_NAMED 1887-08-15 15:00:00 NR 20.4241 111.743 main 100 99 __________P___ -1 20.4241 111.743 4 9 299
1887226N16116 1887 33 WP MM NOT_NAMED 1887-08-15 16:00:00 NR 20.5000 111.600 main 99 78 __________O___ -1 20.5000 111.600 4 9 300
1887226N16116 1887 33 WP MM NOT_NAMED 1887-08-15 18:00:00 NR 20.6567 111.315 main 78 45 __________P___ -1 20.6567 111.315 4 9 301
1887226N16116 1887 33 WP MM NOT_NAMED 1887-08-15 21:00:00 NR 20.9018 110.890 main 45 0 __________P___ -1 20.9018 110.890 4 9 302
1887226N16116 1887 33 WP MM NOT_NAMED 1887-08-16 00:00:00 NR 21.1556 110.466 main 0 0 __________P___ -1 21.1556 110.466 4 9 303
1887226N16116 1887 33 WP MM NOT_NAMED 1887-08-16 03:00:00 NR 21.4137 110.042 main 0 0 __________P___ -1 21.4137 110.042 4 9 303
1887226N16116 1887 33 WP MM NOT_NAMED 1887-08-16 04:00:00 NR 21.5000 109.900 main 0 __________O___ -1 21.5000 109.900 7 9 303

Digital Typhoon Data and Search

About IBTrACS Database

This database is a web-friendly format of International Best Track Archive for Climate Stewardship (IBTrACS), a global best track data archive curated by NOAA dating back to 1842.

Updated: 2021-10-21